sensor_id;sensor_type;location;lat;lon;timestamp;pressure;altitude;pressure_sealevel;temperature;humidity
14966;BME280;7577;45.226;5.798;2023-04-19T00:00:11;99247.69;;;21.65;48.25
14966;BME280;7577;45.226;5.798;2023-04-19T00:05:20;99244.45;;;21.63;48.23
14966;BME280;7577;45.226;5.798;2023-04-19T00:07:51;99249.16;;;21.63;48.19
14966;BME280;7577;45.226;5.798;2023-04-19T00:12:59;99247.54;;;21.62;48.15
14966;BME280;7577;45.226;5.798;2023-04-19T00:15:30;99244.86;;;21.59;48.13
14966;BME280;7577;45.226;5.798;2023-04-19T00:18:02;99245.98;;;21.58;48.11
14966;BME280;7577;45.226;5.798;2023-04-19T00:20:32;99241.58;;;21.57;48.08
14966;BME280;7577;45.226;5.798;2023-04-19T00:25:41;99245.66;;;21.60;48.01
14966;BME280;7577;45.226;5.798;2023-04-19T00:28:11;99249.11;;;21.57;48.00
14966;BME280;7577;45.226;5.798;2023-04-19T00:30:42;99246.33;;;21.57;47.94
14966;BME280;7577;45.226;5.798;2023-04-19T00:33:12;99240.52;;;21.56;47.93
14966;BME280;7577;45.226;5.798;2023-04-19T00:35:42;99245.27;;;21.55;47.88
14966;BME280;7577;45.226;5.798;2023-04-19T00:38:12;99245.00;;;21.54;47.85
14966;BME280;7577;45.226;5.798;2023-04-19T00:40:42;99244.20;;;21.54;47.82
14966;BME280;7577;45.226;5.798;2023-04-19T00:43:16;99243.38;;;21.53;47.80
14966;BME280;7577;45.226;5.798;2023-04-19T00:45:48;99245.36;;;21.53;47.75
14966;BME280;7577;45.226;5.798;2023-04-19T00:48:18;99245.59;;;21.54;47.71
14966;BME280;7577;45.226;5.798;2023-04-19T00:50:48;99243.14;;;21.52;47.69
14966;BME280;7577;45.226;5.798;2023-04-19T00:53:18;99242.32;;;21.52;47.67
14966;BME280;7577;45.226;5.798;2023-04-19T00:55:49;99245.69;;;21.51;47.63
14966;BME280;7577;45.226;5.798;2023-04-19T00:58:19;99242.32;;;21.52;47.57
14966;BME280;7577;45.226;5.798;2023-04-19T01:00:49;99238.52;;;21.50;47.58
14966;BME280;7577;45.226;5.798;2023-04-19T01:03:20;99232.70;;;21.49;47.52
14966;BME280;7577;45.226;5.798;2023-04-19T01:05:50;99241.61;;;21.49;47.52
14966;BME280;7577;45.226;5.798;2023-04-19T01:08:20;99236.63;;;21.48;47.50
14966;BME280;7577;45.226;5.798;2023-04-19T01:13:28;99237.45;;;21.49;47.42
14966;BME280;7577;45.226;5.798;2023-04-19T01:15:58;99230.61;;;21.46;47.42
14966;BME280;7577;45.226;5.798;2023-04-19T01:18:28;99233.95;;;21.46;47.38
14966;BME280;7577;45.226;5.798;2023-04-19T01:21:00;99235.09;;;21.45;47.38
14966;BME280;7577;45.226;5.798;2023-04-19T01:26:08;99233.95;;;21.46;47.32
14966;BME280;7577;45.226;5.798;2023-04-19T01:28:38;99233.20;;;21.43;47.32
14966;BME280;7577;45.226;5.798;2023-04-19T01:31:08;99239.58;;;21.43;47.30
14966;BME280;7577;45.226;5.798;2023-04-19T01:33:38;99232.17;;;21.41;47.23
14966;BME280;7577;45.226;5.798;2023-04-19T01:38:46;99232.41;;;21.42;47.21
14966;BME280;7577;45.226;5.798;2023-04-19T01:43:54;99226.87;;;21.42;47.14
14966;BME280;7577;45.226;5.798;2023-04-19T01:46:24;99225.80;;;21.41;47.08
14966;BME280;7577;45.226;5.798;2023-04-19T01:48:54;99226.95;;;21.40;47.07
14966;BME280;7577;45.226;5.798;2023-04-19T01:51:24;99223.59;;;21.40;47.03
14966;BME280;7577;45.226;5.798;2023-04-19T01:53:54;99228.66;;;21.38;47.04
14966;BME280;7577;45.226;5.798;2023-04-19T01:56:25;99230.61;;;21.38;47.02
14966;BME280;7577;45.226;5.798;2023-04-19T01:58:55;99221.50;;;21.37;46.97
14966;BME280;7577;45.226;5.798;2023-04-19T02:01:26;99223.69;;;21.38;46.94
14966;BME280;7577;45.226;5.798;2023-04-19T02:03:56;99229.81;;;21.37;46.91
14966;BME280;7577;45.226;5.798;2023-04-19T02:06:26;99231.52;;;21.36;46.89
14966;BME280;7577;45.226;5.798;2023-04-19T02:08:57;99231.52;;;21.36;46.90
14966;BME280;7577;45.226;5.798;2023-04-19T02:11:27;99229.31;;;21.35;46.89
14966;BME280;7577;45.226;5.798;2023-04-19T02:13:57;99236.00;;;21.34;46.87
14966;BME280;7577;45.226;5.798;2023-04-19T02:16:27;99228.52;;;21.35;46.84
14966;BME280;7577;45.226;5.798;2023-04-19T02:18:57;99237.16;;;21.33;46.81
14966;BME280;7577;45.226;5.798;2023-04-19T02:21:27;99236.33;;;21.33;46.80
14966;BME280;7577;45.226;5.798;2023-04-19T02:23:58;99234.70;;;21.32;46.79
14966;BME280;7577;45.226;5.798;2023-04-19T02:29:10;99238.86;;;21.32;46.79
14966;BME280;7577;45.226;5.798;2023-04-19T02:31:41;99242.87;;;21.28;46.78
14966;BME280;7577;45.226;5.798;2023-04-19T02:36:51;99238.12;;;21.29;46.71
14966;BME280;7577;45.226;5.798;2023-04-19T02:39:21;99239.03;;;21.27;46.71
14966;BME280;7577;45.226;5.798;2023-04-19T02:41:51;99246.20;;;21.28;46.69
14966;BME280;7577;45.226;5.798;2023-04-19T02:44:22;99245.96;;;21.27;46.66
14966;BME280;7577;45.226;5.798;2023-04-19T02:46:53;99240.73;;;21.25;46.64
14966;BME280;7577;45.226;5.798;2023-04-19T02:49:25;99237.14;;;21.25;46.60
14966;BME280;7577;45.226;5.798;2023-04-19T02:54:33;99240.66;;;21.28;46.54
14966;BME280;7577;45.226;5.798;2023-04-19T02:57:04;99241.30;;;21.25;46.53
14966;BME280;7577;45.226;5.798;2023-04-19T03:02:11;99239.35;;;21.25;46.49
14966;BME280;7577;45.226;5.798;2023-04-19T03:04:41;99238.61;;;21.22;46.50
14966;BME280;7577;45.226;5.798;2023-04-19T03:07:12;99240.83;;;21.23;46.45
14966;BME280;7577;45.226;5.798;2023-04-19T03:09:43;99235.05;;;21.22;46.45
14966;BME280;7577;45.226;5.798;2023-04-19T03:14:53;99230.89;;;21.22;46.39
14966;BME280;7577;45.226;5.798;2023-04-19T03:17:23;99238.46;;;21.19;46.38
14966;BME280;7577;45.226;5.798;2023-04-19T03:22:31;99243.17;;;21.18;46.33
14966;BME280;7577;45.226;5.798;2023-04-19T03:27:39;99244.00;;;21.19;46.31
14966;BME280;7577;45.226;5.798;2023-04-19T03:30:11;99241.31;;;21.16;46.29
14966;BME280;7577;45.226;5.798;2023-04-19T03:35:20;99242.11;;;21.17;46.23
14966;BME280;7577;45.226;5.798;2023-04-19T03:40:32;99242.11;;;21.17;46.18
14966;BME280;7577;45.226;5.798;2023-04-19T03:43:02;99243.94;;;21.13;46.19
14966;BME280;7577;45.226;5.798;2023-04-19T03:45:32;99239.42;;;21.14;46.13
14966;BME280;7577;45.226;5.798;2023-04-19T03:48:02;99241.96;;;21.13;46.10
14966;BME280;7577;45.226;5.798;2023-04-19T03:50:33;99240.34;;;21.12;46.10
14966;BME280;7577;45.226;5.798;2023-04-19T03:53:04;99240.66;;;21.11;46.09
14966;BME280;7577;45.226;5.798;2023-04-19T03:55:33;99242.88;;;21.11;46.06
14966;BME280;7577;45.226;5.798;2023-04-19T03:58:04;99238.72;;;21.11;46.02
14966;BME280;7577;45.226;5.798;2023-04-19T04:00:36;99241.72;;;21.12;45.94
14966;BME280;7577;45.226;5.798;2023-04-19T04:03:06;99241.48;;;21.11;45.92
14966;BME280;7577;45.226;5.798;2023-04-19T04:05:37;99239.04;;;21.10;45.93
14966;BME280;7577;45.226;5.798;2023-04-19T04:08:07;99241.22;;;21.10;45.89
14966;BME280;7577;45.226;5.798;2023-04-19T04:10:38;99243.19;;;21.10;45.90
14966;BME280;7577;45.226;5.798;2023-04-19T04:13:08;99237.97;;;21.08;45.88
14966;BME280;7577;45.226;5.798;2023-04-19T04:15:38;99241.30;;;21.08;45.87
14966;BME280;7577;45.226;5.798;2023-04-19T04:20:46;99235.12;;;21.11;45.81
14966;BME280;7577;45.226;5.798;2023-04-19T04:25:57;99241.22;;;21.10;45.74
14966;BME280;7577;45.226;5.798;2023-04-19T04:31:10;99245.96;;;21.10;45.74
14966;BME280;7577;45.226;5.798;2023-04-19T04:33:41;99254.27;;;21.10;45.70
14966;BME280;7577;45.226;5.798;2023-04-19T04:36:12;99251.98;;;21.12;45.67
14966;BME280;7577;45.226;5.798;2023-04-19T04:38:42;99257.52;;;21.12;45.67
14966;BME280;7577;45.226;5.798;2023-04-19T04:41:12;99255.58;;;21.12;45.66
14966;BME280;7577;45.226;5.798;2023-04-19T04:43:42;99264.63;;;21.15;45.60
14966;BME280;7577;45.226;5.798;2023-04-19T04:46:13;99260.80;;;21.14;45.59
14966;BME280;7577;45.226;5.798;2023-04-19T04:48:43;99262.73;;;21.13;45.59
14966;BME280;7577;45.226;5.798;2023-04-19T04:51:13;99267.95;;;21.15;45.55
14966;BME280;7577;45.226;5.798;2023-04-19T04:53:43;99269.90;;;21.14;45.55
14966;BME280;7577;45.226;5.798;2023-04-19T04:56:13;99271.79;;;21.16;45.52
14966;BME280;7577;45.226;5.798;2023-04-19T04:58:43;99277.81;;;21.18;45.46
14966;BME280;7577;45.226;5.798;2023-04-19T05:01:13;99272.50;;;21.19;45.42
14966;BME280;7577;45.226;5.798;2023-04-19T05:03:45;99274.16;;;21.20;45.36
14966;BME280;7577;45.226;5.798;2023-04-19T05:06:15;99271.95;;;21.20;45.36
14966;BME280;7577;45.226;5.798;2023-04-19T05:08:46;99269.41;;;21.21;45.35
14966;BME280;7577;45.226;5.798;2023-04-19T05:11:16;99271.95;;;21.20;45.31
14966;BME280;7577;45.226;5.798;2023-04-19T05:13:46;99271.70;;;21.19;45.33
14966;BME280;7577;45.226;5.798;2023-04-19T05:16:17;99278.64;;;21.19;45.39
14966;BME280;7577;45.226;5.798;2023-04-19T05:18:47;99271.47;;;21.18;45.37
14966;BME280;7577;45.226;5.798;2023-04-19T05:21:17;99274.48;;;21.19;45.52
14966;BME280;7577;45.226;5.798;2023-04-19T05:23:48;99274.95;;;21.21;45.54
14966;BME280;7577;45.226;5.798;2023-04-19T05:26:20;99279.03;;;21.23;45.60
14966;BME280;7577;45.226;5.798;2023-04-19T05:28:50;99280.68;;;21.24;45.71
14966;BME280;7577;45.226;5.798;2023-04-19T05:31:20;99281.23;;;21.24;45.75
14966;BME280;7577;45.226;5.798;2023-04-19T05:33:50;99285.39;;;21.24;45.92
14966;BME280;7577;45.226;5.798;2023-04-19T05:36:20;99285.87;;;21.26;45.94
14966;BME280;7577;45.226;5.798;2023-04-19T05:38:50;99280.51;;;21.29;45.87
14966;BME280;7577;45.226;5.798;2023-04-19T05:41:21;99281.39;;;21.27;46.26
14966;BME280;7577;45.226;5.798;2023-04-19T05:43:51;99280.91;;;21.34;45.96
14966;BME280;7577;45.226;5.798;2023-04-19T05:46:21;99285.24;;;21.37;45.85
14966;BME280;7577;45.226;5.798;2023-04-19T05:48:51;99279.30;;;21.41;45.72
14966;BME280;7577;45.226;5.798;2023-04-19T05:51:21;99283.84;;;21.46;45.63
14966;BME280;7577;45.226;5.798;2023-04-19T05:56:30;99281.12;;;21.52;45.61
14966;BME280;7577;45.226;5.798;2023-04-19T05:59:00;99282.52;;;21.52;45.57
14966;BME280;7577;45.226;5.798;2023-04-19T06:01:30;99281.31;;;21.55;45.54
14966;BME280;7577;45.226;5.798;2023-04-19T06:04:01;99277.39;;;21.56;45.55
14966;BME280;7577;45.226;5.798;2023-04-19T06:06:31;99278.13;;;21.59;45.53
14966;BME280;7577;45.226;5.798;2023-04-19T06:09:01;99279.98;;;21.61;45.51
14966;BME280;7577;45.226;5.798;2023-04-19T06:11:31;99275.41;;;21.65;45.49
14966;BME280;7577;45.226;5.798;2023-04-19T06:14:02;99281.70;;;21.68;45.43
14966;BME280;7577;45.226;5.798;2023-04-19T06:16:33;99279.66;;;21.71;45.44
14966;BME280;7577;45.226;5.798;2023-04-19T06:19:03;99282.70;;;21.72;45.45
14966;BME280;7577;45.226;5.798;2023-04-19T06:21:34;99284.00;;;21.75;45.40
14966;BME280;7577;45.226;5.798;2023-04-19T06:26:43;99285.95;;;21.83;45.28
14966;BME280;7577;45.226;5.798;2023-04-19T06:29:15;99284.30;;;21.82;45.20
14966;BME280;7577;45.226;5.798;2023-04-19T06:31:47;99281.70;;;21.85;45.17
14966;BME280;7577;45.226;5.798;2023-04-19T06:34:17;99280.55;;;21.86;45.15
14966;BME280;7577;45.226;5.798;2023-04-19T06:36:47;99284.61;;;21.89;45.09
14966;BME280;7577;45.226;5.798;2023-04-19T06:41:56;99279.12;;;21.95;44.98
14966;BME280;7577;45.226;5.798;2023-04-19T06:44:26;99281.09;;;21.94;44.98
14966;BME280;7577;45.226;5.798;2023-04-19T06:46:56;99282.13;;;21.96;44.95
14966;BME280;7577;45.226;5.798;2023-04-19T06:49:26;99280.69;;;21.98;44.92
14966;BME280;7577;45.226;5.798;2023-04-19T06:51:57;99279.53;;;21.99;44.94
14966;BME280;7577;45.226;5.798;2023-04-19T06:54:27;99274.45;;;22.01;44.90
14966;BME280;7577;45.226;5.798;2023-04-19T06:56:57;99273.30;;;22.02;44.86
14966;BME280;7577;45.226;5.798;2023-04-19T06:59:27;99272.41;;;22.04;44.88
14966;BME280;7577;45.226;5.798;2023-04-19T07:01:59;99277.95;;;22.04;44.87
14966;BME280;7577;45.226;5.798;2023-04-19T07:04:29;99270.93;;;22.07;44.85
14966;BME280;7577;45.226;5.798;2023-04-19T07:06:59;99271.16;;;22.08;44.85
14966;BME280;7577;45.226;5.798;2023-04-19T07:09:30;99269.78;;;22.08;44.84
14966;BME280;7577;45.226;5.798;2023-04-19T07:12:00;99265.28;;;22.09;44.83
14966;BME280;7577;45.226;5.798;2023-04-19T07:14:30;99268.30;;;22.10;44.83
14966;BME280;7577;45.226;5.798;2023-04-19T07:17:00;99264.13;;;22.10;44.81
14966;BME280;7577;45.226;5.798;2023-04-19T07:19:30;99260.47;;;22.13;44.78
14966;BME280;7577;45.226;5.798;2023-04-19T07:22:00;99263.25;;;22.13;44.81
14966;BME280;7577;45.226;5.798;2023-04-19T07:24:31;99263.25;;;22.13;44.83
14966;BME280;7577;45.226;5.798;2023-04-19T07:27:01;99263.48;;;22.13;44.86
14966;BME280;7577;45.226;5.798;2023-04-19T07:29:34;99258.75;;;22.14;44.85
14966;BME280;7577;45.226;5.798;2023-04-19T07:32:05;99265.34;;;22.15;44.85
14966;BME280;7577;45.226;5.798;2023-04-19T07:34:37;99256.22;;;22.15;44.87
14966;BME280;7577;45.226;5.798;2023-04-19T07:37:08;99255.39;;;22.14;44.87
14966;BME280;7577;45.226;5.798;2023-04-19T07:39:39;99254.83;;;22.15;44.91
14966;BME280;7577;45.226;5.798;2023-04-19T07:42:09;99248.45;;;22.14;44.92
14966;BME280;7577;45.226;5.798;2023-04-19T07:47:17;99248.95;;;22.17;44.93
14966;BME280;7577;45.226;5.798;2023-04-19T07:49:50;99243.40;;;22.17;44.94
14966;BME280;7577;45.226;5.798;2023-04-19T07:52:18;99244.20;;;22.17;44.95
14966;BME280;7577;45.226;5.798;2023-04-19T07:54:48;99238.41;;;22.16;44.95
14966;BME280;7577;45.226;5.798;2023-04-19T07:57:18;99241.42;;;22.17;44.95
14966;BME280;7577;45.226;5.798;2023-04-19T07:59:49;99240.03;;;22.17;44.95
14966;BME280;7577;45.226;5.798;2023-04-19T08:02:19;99239.80;;;22.16;44.99
14966;BME280;7577;45.226;5.798;2023-04-19T08:04:50;99240.63;;;22.17;44.97
14966;BME280;7577;45.226;5.798;2023-04-19T08:07:19;99240.30;;;22.18;44.97
14966;BME280;7577;45.226;5.798;2023-04-19T08:09:51;99233.36;;;22.18;44.95
14966;BME280;7577;45.226;5.798;2023-04-19T08:12:21;99226.89;;;22.20;44.93
14966;BME280;7577;45.226;5.798;2023-04-19T08:14:51;99219.39;;;22.21;44.92
14966;BME280;7577;45.226;5.798;2023-04-19T08:17:21;99225.17;;;22.22;44.89
14966;BME280;7577;45.226;5.798;2023-04-19T08:19:52;99219.03;;;22.22;44.88
14966;BME280;7577;45.226;5.798;2023-04-19T08:25:00;99210.61;;;22.24;44.88
14966;BME280;7577;45.226;5.798;2023-04-19T08:27:32;99213.15;;;22.23;44.89
14966;BME280;7577;45.226;5.798;2023-04-19T08:32:41;99206.61;;;22.28;44.84
14966;BME280;7577;45.226;5.798;2023-04-19T08:35:12;99211.11;;;22.27;44.86
14966;BME280;7577;45.226;5.798;2023-04-19T08:37:42;99205.45;;;22.29;44.84
14966;BME280;7577;45.226;5.798;2023-04-19T08:42:53;99191.97;;;22.34;44.79
14966;BME280;7577;45.226;5.798;2023-04-19T08:45:26;99189.77;;;22.33;44.77
14966;BME280;7577;45.226;5.798;2023-04-19T08:47:57;99182.27;;;22.34;44.76
14966;BME280;7577;45.226;5.798;2023-04-19T08:50:28;99184.45;;;22.34;44.77
14966;BME280;7577;45.226;5.798;2023-04-19T08:52:59;99179.13;;;22.35;44.77
14966;BME280;7577;45.226;5.798;2023-04-19T08:55:29;99178.89;;;22.34;44.75
14966;BME280;7577;45.226;5.798;2023-04-19T08:58:02;99178.80;;;22.37;44.76
14966;BME280;7577;45.226;5.798;2023-04-19T09:00:36;99174.30;;;22.38;44.72
14966;BME280;7577;45.226;5.798;2023-04-19T09:03:06;99176.74;;;22.40;44.68
14966;BME280;7577;45.226;5.798;2023-04-19T09:05:37;99178.59;;;22.42;44.66
14966;BME280;7577;45.226;5.798;2023-04-19T09:11:03;99159.06;;;22.44;44.65
14966;BME280;7577;45.226;5.798;2023-04-19T09:13:33;99166.27;;;22.45;44.61
14966;BME280;7577;45.226;5.798;2023-04-19T09:16:06;99163.75;;;22.46;44.59
14966;BME280;7577;45.226;5.798;2023-04-19T09:18:54;99160.05;;;22.48;44.54
14966;BME280;7577;45.226;5.798;2023-04-19T09:24:09;99145.40;;;22.54;44.43
14966;BME280;7577;45.226;5.798;2023-04-19T09:26:40;99147.28;;;22.56;44.35
14966;BME280;7577;45.226;5.798;2023-04-19T09:29:14;99139.97;;;22.57;44.27
14966;BME280;7577;45.226;5.798;2023-04-19T09:31:54;99138.59;;;22.57;44.20
14966;BME280;7577;45.226;5.798;2023-04-19T09:34:18;99135.47;;;22.59;44.18
14966;BME280;7577;45.226;5.798;2023-04-19T09:36:49;99125.98;;;22.60;44.14
14966;BME280;7577;45.226;5.798;2023-04-19T09:39:30;99125.66;;;22.61;44.12
14966;BME280;7577;45.226;5.798;2023-04-19T09:42:00;99118.38;;;22.63;44.08
14966;BME280;7577;45.226;5.798;2023-04-19T09:44:31;99118.04;;;22.64;44.03
14966;BME280;7577;45.226;5.798;2023-04-19T09:47:02;99113.05;;;22.64;44.01
14966;BME280;7577;45.226;5.798;2023-04-19T09:49:34;99106.94;;;22.64;44.03
14966;BME280;7577;45.226;5.798;2023-04-19T09:52:05;99110.87;;;22.63;44.00
14966;BME280;7577;45.226;5.798;2023-04-19T09:54:36;99101.38;;;22.64;43.97
14966;BME280;7577;45.226;5.798;2023-04-19T09:57:07;99092.48;;;22.65;43.96
14966;BME280;7577;45.226;5.798;2023-04-19T09:59:37;99087.50;;;22.64;43.97
14966;BME280;7577;45.226;5.798;2023-04-19T10:04:48;99084.95;;;22.65;43.90
14966;BME280;7577;45.226;5.798;2023-04-19T10:07:18;99077.55;;;22.63;43.89
14966;BME280;7577;45.226;5.798;2023-04-19T10:09:50;99078.94;;;22.63;43.91
14966;BME280;7577;45.226;5.798;2023-04-19T10:12:24;99081.61;;;22.66;43.86
14966;BME280;7577;45.226;5.798;2023-04-19T10:14:55;99070.84;;;22.64;43.81
14966;BME280;7577;45.226;5.798;2023-04-19T10:17:26;99065.05;;;22.63;43.82
14966;BME280;7577;45.226;5.798;2023-04-19T10:20:00;99067.01;;;22.63;43.80
14966;BME280;7577;45.226;5.798;2023-04-19T10:22:32;99062.84;;;22.63;43.80
14966;BME280;7577;45.226;5.798;2023-04-19T10:27:47;99054.17;;;22.64;43.85
14966;BME280;7577;45.226;5.798;2023-04-19T10:30:20;99049.78;;;22.63;43.84
14966;BME280;7577;45.226;5.798;2023-04-19T10:32:53;99048.39;;;22.63;43.86
14966;BME280;7577;45.226;5.798;2023-04-19T10:38:05;99039.63;;;22.67;44.35
14966;BME280;7577;45.226;5.798;2023-04-19T10:40:54;99035.20;;;22.66;44.89
14966;BME280;7577;45.226;5.798;2023-04-19T10:43:26;99036.84;;;22.67;45.52
14966;BME280;7577;45.226;5.798;2023-04-19T10:46:01;99029.80;;;22.70;45.99
14966;BME280;7577;45.226;5.798;2023-04-19T10:48:50;99023.64;;;22.70;46.04
14966;BME280;7577;45.226;5.798;2023-04-19T10:51:26;99021.12;;;22.71;46.09
14966;BME280;7577;45.226;5.798;2023-04-19T10:53:58;99018.91;;;22.71;46.01
14966;BME280;7577;45.226;5.798;2023-04-19T10:56:56;99012.09;;;22.74;45.87
14966;BME280;7577;45.226;5.798;2023-04-19T10:59:29;99008.52;;;22.74;45.65
14966;BME280;7577;45.226;5.798;2023-04-19T11:02:01;98995.42;;;22.74;45.51
14966;BME280;7577;45.226;5.798;2023-04-19T11:07:46;98990.35;;;22.76;45.29
14966;BME280;7577;45.226;5.798;2023-04-19T11:10:27;98985.25;;;22.78;45.22
14966;BME280;7577;45.226;5.798;2023-04-19T11:12:58;98981.91;;;22.79;45.09
14966;BME280;7577;45.226;5.798;2023-04-19T11:15:29;98974.38;;;22.79;45.20
14966;BME280;7577;45.226;5.798;2023-04-19T11:17:59;98962.70;;;22.80;45.08
14966;BME280;7577;45.226;5.798;2023-04-19T11:20:31;98963.52;;;22.80;44.96
14966;BME280;7577;45.226;5.798;2023-04-19T11:23:01;98960.97;;;22.81;44.80
14966;BME280;7577;45.226;5.798;2023-04-19T11:28:09;98948.02;;;22.85;44.51
14966;BME280;7577;45.226;5.798;2023-04-19T11:33:20;98941.07;;;22.85;44.47
14966;BME280;7577;45.226;5.798;2023-04-19T11:35:53;98944.08;;;22.86;44.36
14966;BME280;7577;45.226;5.798;2023-04-19T11:38:27;98938.18;;;22.88;44.32
14966;BME280;7577;45.226;5.798;2023-04-19T11:41:01;98929.84;;;22.88;44.21
14966;BME280;7577;45.226;5.798;2023-04-19T11:43:35;98927.89;;;22.88;44.18
14966;BME280;7577;45.226;5.798;2023-04-19T11:46:07;98920.13;;;22.88;44.13
14966;BME280;7577;45.226;5.798;2023-04-19T11:48:38;98917.23;;;22.90;44.03
14966;BME280;7577;45.226;5.798;2023-04-19T11:53:40;98903.56;;;22.91;44.01
14966;BME280;7577;45.226;5.798;2023-04-19T11:56:10;98894.44;;;22.91;43.94
14966;BME280;7577;45.226;5.798;2023-04-19T11:58:43;98890.27;;;22.91;43.98
14966;BME280;7577;45.226;5.798;2023-04-19T12:01:17;98887.13;;;22.92;43.96
14966;BME280;7577;45.226;5.798;2023-04-19T12:03:50;98884.72;;;22.91;43.87
14966;BME280;7577;45.226;5.798;2023-04-19T12:06:22;98881.12;;;22.90;43.92
14966;BME280;7577;45.226;5.798;2023-04-19T12:08:54;98877.78;;;22.91;43.87
14966;BME280;7577;45.226;5.798;2023-04-19T12:11:40;98875.56;;;22.90;43.82
14966;BME280;7577;45.226;5.798;2023-04-19T12:14:08;98870.01;;;22.90;43.87
14966;BME280;7577;45.226;5.798;2023-04-19T12:16:39;98865.73;;;22.87;43.93
14966;BME280;7577;45.226;5.798;2023-04-19T12:19:13;98857.63;;;22.88;44.14
14966;BME280;7577;45.226;5.798;2023-04-19T12:21:46;98859.13;;;22.91;43.91
14966;BME280;7577;45.226;5.798;2023-04-19T12:24:17;98848.61;;;22.91;43.75
14966;BME280;7577;45.226;5.798;2023-04-19T12:26:53;98847.44;;;22.92;43.76
14966;BME280;7577;45.226;5.798;2023-04-19T12:29:25;98842.11;;;22.93;43.76
14966;BME280;7577;45.226;5.798;2023-04-19T12:31:55;98843.72;;;22.94;43.66
14966;BME280;7577;45.226;5.798;2023-04-19T12:34:26;98837.38;;;22.93;43.53
14966;BME280;7577;45.226;5.798;2023-04-19T12:36:56;98835.73;;;22.92;43.58
14966;BME280;7577;45.226;5.798;2023-04-19T12:42:05;98826.47;;;23.00;43.44
14966;BME280;7577;45.226;5.798;2023-04-19T12:47:13;98833.78;;;23.05;43.34
14966;BME280;7577;45.226;5.798;2023-04-19T12:49:43;98821.96;;;23.02;43.30
14966;BME280;7577;45.226;5.798;2023-04-19T12:52:13;98816.06;;;23.03;43.21
14966;BME280;7577;45.226;5.798;2023-04-19T12:54:43;98806.22;;;23.06;43.15
14966;BME280;7577;45.226;5.798;2023-04-19T12:59:51;98800.41;;;23.11;42.85
14966;BME280;7577;45.226;5.798;2023-04-19T13:04:59;98799.13;;;23.14;42.70
14966;BME280;7577;45.226;5.798;2023-04-19T13:07:29;98791.05;;;23.15;42.62
14966;BME280;7577;45.226;5.798;2023-04-19T13:10:00;98785.93;;;23.17;42.58
14966;BME280;7577;45.226;5.798;2023-04-19T13:12:31;98778.10;;;23.19;42.40
14966;BME280;7577;45.226;5.798;2023-04-19T13:15:01;98778.33;;;23.20;42.13
14966;BME280;7577;45.226;5.798;2023-04-19T13:17:31;98771.25;;;23.23;42.06
14966;BME280;7577;45.226;5.798;2023-04-19T13:20:02;98765.34;;;23.24;41.93
14966;BME280;7577;45.226;5.798;2023-04-19T13:25:14;98745.52;;;23.32;41.75
14966;BME280;7577;45.226;5.798;2023-04-19T13:30:22;98736.09;;;23.36;41.51
14966;BME280;7577;45.226;5.798;2023-04-19T13:32:53;98738.88;;;23.36;41.42
14966;BME280;7577;45.226;5.798;2023-04-19T13:38:01;98730.41;;;23.45;41.24
14966;BME280;7577;45.226;5.798;2023-04-19T13:43:09;98732.36;;;23.50;40.98
14966;BME280;7577;45.226;5.798;2023-04-19T13:45:39;98732.58;;;23.51;40.94
14966;BME280;7577;45.226;5.798;2023-04-19T13:48:09;98720.76;;;23.54;40.90
14966;BME280;7577;45.226;5.798;2023-04-19T13:50:39;98712.29;;;23.57;40.75
14966;BME280;7577;45.226;5.798;2023-04-19T13:53:10;98708.20;;;23.60;40.66
14966;BME280;7577;45.226;5.798;2023-04-19T13:55:40;98698.55;;;23.64;40.56
14966;BME280;7577;45.226;5.798;2023-04-19T13:58:10;98699.69;;;23.69;40.48
14966;BME280;7577;45.226;5.798;2023-04-19T14:00:40;98698.98;;;23.72;40.33
14966;BME280;7577;45.226;5.798;2023-04-19T14:03:10;98694.11;;;23.75;40.26
14966;BME280;7577;45.226;5.798;2023-04-19T14:05:41;98700.92;;;23.77;40.15
14966;BME280;7577;45.226;5.798;2023-04-19T14:08:11;98687.70;;;23.80;40.11
14966;BME280;7577;45.226;5.798;2023-04-19T14:10:41;98687.57;;;23.83;40.10
14966;BME280;7577;45.226;5.798;2023-04-19T14:13:11;98683.34;;;23.89;40.01
14966;BME280;7577;45.226;5.798;2023-04-19T14:15:41;98683.58;;;23.96;39.92
14966;BME280;7577;45.226;5.798;2023-04-19T14:18:11;98668.35;;;23.99;39.81
14966;BME280;7577;45.226;5.798;2023-04-19T14:20:41;98664.18;;;23.99;39.80
14966;BME280;7577;45.226;5.798;2023-04-19T14:23:11;98657.80;;;23.99;39.76
14966;BME280;7577;45.226;5.798;2023-04-19T14:28:19;98656.81;;;24.07;39.68
14966;BME280;7577;45.226;5.798;2023-04-19T14:30:50;98657.77;;;24.05;39.70
14966;BME280;7577;45.226;5.798;2023-04-19T14:35:58;98654.25;;;24.08;39.69
14966;BME280;7577;45.226;5.798;2023-04-19T14:38:28;98655.28;;;24.09;39.70
14966;BME280;7577;45.226;5.798;2023-04-19T14:40:59;98650.61;;;24.13;39.59
14966;BME280;7577;45.226;5.798;2023-04-19T14:43:29;98644.55;;;24.17;39.59
14966;BME280;7577;45.226;5.798;2023-04-19T14:46:01;98649.48;;;24.24;39.49
14966;BME280;7577;45.226;5.798;2023-04-19T14:48:31;98643.98;;;24.27;39.41
14966;BME280;7577;45.226;5.798;2023-04-19T14:51:01;98643.70;;;24.32;39.28
14966;BME280;7577;45.226;5.798;2023-04-19T14:53:31;98646.24;;;24.37;39.25
14966;BME280;7577;45.226;5.798;2023-04-19T14:56:04;98636.64;;;24.44;39.19
14966;BME280;7577;45.226;5.798;2023-04-19T14:58:34;98635.47;;;24.45;39.09
14966;BME280;7577;45.226;5.798;2023-04-19T15:01:11;98634.75;;;24.48;39.06
14966;BME280;7577;45.226;5.798;2023-04-19T15:03:42;98625.75;;;24.55;39.08
14966;BME280;7577;45.226;5.798;2023-04-19T15:06:12;98623.42;;;24.57;38.99
14966;BME280;7577;45.226;5.798;2023-04-19T15:08:43;98619.56;;;24.61;38.90
14966;BME280;7577;45.226;5.798;2023-04-19T15:11:14;98619.27;;;24.66;38.92
14966;BME280;7577;45.226;5.798;2023-04-19T15:13:45;98612.38;;;24.70;38.81
14966;BME280;7577;45.226;5.798;2023-04-19T15:16:16;98618.27;;;24.74;38.79
14966;BME280;7577;45.226;5.798;2023-04-19T15:21:23;98611.31;;;24.84;38.58
14966;BME280;7577;45.226;5.798;2023-04-19T15:26:32;98605.44;;;24.89;38.53
14966;BME280;7577;45.226;5.798;2023-04-19T15:29:03;98607.72;;;24.93;38.50
14966;BME280;7577;45.226;5.798;2023-04-19T15:34:11;98600.89;;;25.09;38.27
14966;BME280;7577;45.226;5.798;2023-04-19T15:36:41;98601.19;;;25.14;38.08